To NAV CANADA Home Page Login to a new session Search on AWWS site Feedback and Comments Disclaimer Vers la page française équivalente Tips FAQ What's new on the site To the Forecasts and Observations / NOTAM section To "File a Flight Plan" website Publications and other links Update of the User's profile FIC Telephone Numbers My Weather Data Folder Route Weather Data Regional Weather Data Local Weather Data To the Forecasts and Observations / NOTAM section
Request Generated 07/26/2016 at 16:02:30 UTC . Weather information available at that time is displayed.

METAR/TAF

CALGARY/SPRINGBANK/AB    (show WxCam)

METAR CYBW 261600Z AUTO 32008KT 9SM CLR 20/13 A3013 RMK SLP197
DENSITY ALT 5200FT=
METAR CYBW 261500Z AUTO 33005KT 9SM CLR 16/16 A3012 RMK SLP197
DENSITY ALT 4700FT=
METAR CYBW 261400Z AUTO 30007KT 9SM CLR 13/13 A3011 RMK SLP196
DENSITY ALT 4300FT=

TAF AMD CYBW 261322Z 2613/2624 VRB03KT P6SM FEW002 BKN120 TEMPO
2613/2615 2SM BR SCT003 OVC120
FM261500 04005KT P6SM BKN080
BECMG 2617/2619 08008KT
FM262200 08008KT P6SM -SHRA BKN080 PROB40 2622/2624 VRB15G30KT
3SM TSRA SCT030 BKN060CB
RMK FCST BASED ON AUTO OBS. NXT FCST BY 261800Z=
Your time UTC time
Weather data provided by Environment Canada and NAV CANADA